Time;durP1;ratioP1;P1;durP2;ratioP2;P2;SDS_P1;SDS_P2;PMS_P1;PMS_P2;Temp;Humidity;BMP_temperature;BMP_pressure;BME280_temperature;BME280_humidity;BME280_pressure;Samples;Min_cycle;Max_cycle;Signal;HPM_P1;HPM_P2
2023/02/09 00:01:45;;;;;;;33.28;19.88;;;;;;;4.17;52.92;100126.69;5090767;28;20075;-46
2023/02/09 00:04:12;;;;;;;28.38;20.50;;;;;;;4.15;52.84;100122.56;5092101;28;20034;-46
2023/02/09 00:06:38;;;;;;;26.15;16.95;;;;;;;4.19;52.00;100118.78;5090781;28;20055;-46
2023/02/09 00:09:08;;;;;;;26.25;18.33;;;;;;;4.14;52.30;100121.72;5090225;28;20082;-47
2023/02/09 00:14:20;;;;;;;32.22;24.25;;;;;;;3.88;52.66;100105.63;5092334;28;20532;-46
2023/02/09 00:16:50;;;;;;;35.45;21.17;;;;;;;3.32;54.89;100108.28;5090658;28;20028;-46
2023/02/09 00:19:19;;;;;;;34.28;22.70;;;;;;;3.27;55.69;100105.25;5090609;28;20029;-46
2023/02/09 00:21:47;;;;;;;36.85;24.75;;;;;;;3.08;56.59;100106.66;5090556;28;20020;-46
2023/02/09 00:24:14;;;;;;;34.90;23.30;;;;;;;2.84;56.80;100111.94;5090548;28;20047;-46
2023/02/09 00:26:43;;;;;;;35.05;24.23;;;;;;;2.58;57.48;100106.91;5091851;28;20031;-46
2023/02/09 00:29:11;;;;;;;35.33;25.10;;;;;;;2.50;58.30;100113.63;5091641;28;20016;-46
2023/02/09 00:31:38;;;;;;;34.83;25.48;;;;;;;2.41;58.26;100109.91;5090139;28;20048;-46
2023/02/09 00:34:07;;;;;;;34.90;25.75;;;;;;;2.35;59.37;100115.56;5090484;28;20107;-46
2023/02/09 00:36:35;;;;;;;37.42;24.55;;;;;;;2.30;59.54;100121.06;5091674;28;20024;-46
2023/02/09 00:39:02;;;;;;;36.00;23.50;;;;;;;2.15;58.87;100127.34;5090420;28;20031;-46
2023/02/09 00:44:14;;;;;;;35.88;24.05;;;;;;;2.15;59.96;100120.44;5091767;28;20043;-45
2023/02/09 00:46:41;;;;;;;31.90;21.20;;;;;;;2.26;59.62;100130.00;5091675;28;20027;-45
2023/02/09 00:49:08;;;;;;;35.47;23.05;;;;;;;2.37;58.72;100131.81;5091640;28;20024;-45
2023/02/09 00:51:35;;;;;;;32.58;23.55;;;;;;;2.49;58.76;100127.50;5091636;28;20099;-45
2023/02/09 00:54:04;;;;;;;33.20;23.60;;;;;;;2.44;58.88;100130.44;5091530;28;20028;-46
2023/02/09 00:56:31;;;;;;;29.52;21.02;;;;;;;2.16;58.56;100126.44;5091817;28;20440;-46
2023/02/09 00:58:57;;;;;;;31.77;19.73;;;;;;;2.00;59.25;100124.13;5091559;28;20480;-45
2023/02/09 01:01:24;;;;;;;30.38;20.67;;;;;;;1.95;59.47;100128.78;5091568;28;20024;-46
2023/02/09 01:03:52;;;;;;;37.10;21.50;;;;;;;1.80;59.77;100125.53;5091518;28;20031;-45
2023/02/09 01:06:19;;;;;;;37.40;23.70;;;;;;;1.84;59.83;100132.13;5091459;28;20018;-45
2023/02/09 01:08:46;;;;;;;34.40;21.55;;;;;;;1.77;59.75;100131.75;5090059;28;20024;-45
2023/02/09 01:11:14;;;;;;;34.30;19.98;;;;;;;1.66;60.49;100128.25;5090104;28;20032;-45
2023/02/09 01:13:43;;;;;;;36.47;21.98;;;;;;;1.71;60.04;100136.50;5091442;28;20028;-45
2023/02/09 01:16:13;;;;;;;30.63;20.83;;;;;;;1.72;59.83;100130.41;5090054;28;20020;-46
2023/02/09 01:18:41;;;;;;;32.60;20.45;;;;;;;1.69;59.72;100138.38;5090085;28;20024;-46
2023/02/09 01:21:13;;;;;;;28.38;20.33;;;;;;;1.66;59.63;100129.09;5090585;28;20036;-46
2023/02/09 01:23:40;;;;;;;30.88;20.33;;;;;;;1.50;59.34;100131.91;5095032;28;20048;-46
2023/02/09 01:26:09;;;;;;;32.63;20.55;;;;;;;1.44;60.31;100140.09;5095047;28;20043;-46
2023/02/09 01:28:37;;;;;;;36.20;20.00;;;;;;;1.49;60.34;100140.63;5094878;28;20108;-46
2023/02/09 01:31:06;;;;;;;30.98;19.38;;;;;;;1.46;59.94;100140.81;5094649;28;20560;-46
2023/02/09 01:33:33;;;;;;;29.13;19.88;;;;;;;1.43;60.32;100141.03;5093609;28;20445;-46
2023/02/09 01:36:08;;;;;;;27.73;18.52;;;;;;;1.37;60.92;100137.13;5094809;28;20034;-45
2023/02/09 01:38:35;;;;;;;;;;;;;;;1.38;61.12;100136.16;5094043;28;20462;-46
2023/02/09 01:41:02;;;;;;;30.23;20.33;;;;;;;1.38;61.49;100141.34;5094711;28;19912;-45
2023/02/09 01:43:49;;;;;;;29.95;20.70;;;;;;;1.39;61.13;100139.59;5093439;28;20024;-46
2023/02/09 01:46:16;;;;;;;31.25;21.15;;;;;;;1.35;61.82;100144.16;5093350;28;20028;-46
2023/02/09 01:48:43;;;;;;;35.97;20.75;;;;;;;1.41;61.96;100145.50;5094597;28;20063;-46
2023/02/09 01:51:10;;;;;;;35.95;21.83;;;;;;;1.56;62.24;100146.19;5094475;28;20024;-46
2023/02/09 01:53:39;;;;;;;25.60;15.80;;;;;;;1.69;61.24;100136.66;5093222;28;20496;-45
2023/02/09 01:56:19;;;;;;;35.80;19.02;;;;;;;1.77;60.52;100131.75;5093116;28;20047;-45
2023/02/09 01:58:47;;;;;;;32.85;18.73;;;;;;;1.94;60.49;100135.72;5094527;28;20028;-45
2023/02/09 02:01:14;;;;;;;31.27;22.15;;;;;;;2.03;60.93;100129.06;5094397;28;20124;-45
2023/02/09 02:03:41;;;;;;;31.38;22.67;;;;;;;2.05;60.80;100128.94;5094327;28;20049;-46
2023/02/09 02:06:14;;;;;;;34.22;23.52;;;;;;;1.93;60.71;100128.06;5094278;28;20024;-45
2023/02/09 02:09:15;;;;;;;32.58;23.50;;;;;;;1.76;61.03;100132.69;5092795;28;20031;-45
2023/02/09 02:12:01;;;;;;;35.22;24.38;;;;;;;1.74;61.84;100124.19;5092793;28;20024;-46
2023/02/09 02:14:30;;;;;;;;;;;;;;;1.83;61.94;100124.47;5094459;28;20486;-46
2023/02/09 02:17:26;;;;;;;35.53;22.98;;;;;;;1.85;61.92;100127.78;5093996;28;19918;-45
2023/02/09 02:20:34;;;;;;;37.55;25.42;;;;;;;2.20;62.77;100125.28;5094037;28;20020;-46
2023/02/09 02:23:22;;;;;;;38.85;23.00;;;;;;;2.50;61.59;100121.41;5092686;28;20032;-46
2023/02/09 02:26:26;;;;;;;35.95;24.25;;;;;;;2.67;60.33;100123.53;5093923;28;20416;-46
2023/02/09 02:29:35;;;;;;;33.13;20.98;;;;;;;2.51;60.19;100126.44;5093760;28;20424;-45
2023/02/09 02:32:41;;;;;;;36.15;23.27;;;;;;;2.30;59.25;100126.25;5093694;28;20032;-47
2023/02/09 02:35:59;;;;;;;;;;;;;;;;;;;;;
2023/02/09 02:39:38;;;;;;;32.50;23.02;;;;;;;1.93;60.71;100125.47;5082500;28;20040;-47
2023/02/09 02:43:09;;;;;;;29.10;21.75;;;;;;;1.75;61.79;100130.19;5068946;28;20101;-47
2023/02/09 02:46:18;;;;;;;33.47;21.30;;;;;;;1.88;62.12;100131.00;5025267;28;20386;-47
2023/02/09 02:49:15;;;;;;;36.80;22.27;;;;;;;1.99;61.97;100135.38;5093433;28;20094;-46
2023/02/09 02:52:18;;;;;;;41.78;27.52;;;;;;;1.80;61.65;100130.69;5092062;28;20059;-47
2023/02/09 02:55:30;;;;;;;38.05;22.80;;;;;;;1.67;61.74;100133.34;5092107;28;20031;-47
2023/02/09 02:58:11;;;;;;;33.85;20.98;;;;;;;1.71;61.58;100133.94;5092001;28;20038;-47
2023/02/09 03:01:14;;;;;;;33.00;19.55;;;;;;;1.74;61.38;100134.53;5088640;28;20036;-46
2023/02/09 03:03:54;;;;;;;33.28;21.83;;;;;;;1.62;61.49;100129.41;5091913;28;20119;-47
2023/02/09 03:06:21;;;;;;;29.38;22.00;;;;;;;1.56;61.84;100128.88;5091677;28;20024;-46
2023/02/09 03:09:08;;;;;;;34.78;21.10;;;;;;;1.57;62.03;100129.72;5092794;28;20471;-46
2023/02/09 03:12:15;;;;;;;28.42;19.58;;;;;;;1.70;61.90;100130.53;5092957;28;20026;-47
2023/02/09 03:15:21;;;;;;;33.88;20.50;;;;;;;1.94;62.50;100132.31;5093003;28;20115;-47
2023/02/09 03:18:30;;;;;;;31.02;21.75;;;;;;;1.97;61.03;100127.75;5092852;28;20110;-46
2023/02/09 03:21:42;;;;;;;33.17;19.70;;;;;;;1.75;60.93;100127.59;5092735;28;20055;-46
2023/02/09 03:24:49;;;;;;;29.63;21.15;;;;;;;1.65;61.41;100131.78;5091361;28;20028;-47
2023/02/09 03:27:54;;;;;;;25.85;18.92;;;;;;;1.54;61.65;100140.28;5091429;28;20032;-47
2023/02/09 03:30:40;;;;;;;36.63;20.25;;;;;;;1.47;61.38;100136.47;5090914;28;20084;-46
2023/02/09 03:33:39;;;;;;;29.35;19.92;;;;;;;1.40;61.04;100136.88;5092505;28;20078;-47
2023/02/09 03:36:51;;;;;;;32.90;21.05;;;;;;;1.42;61.63;100144.53;5091202;28;20054;-47
2023/02/09 03:39:24;;;;;;;30.65;19.85;;;;;;;1.47;61.88;100141.63;5092445;28;20035;-46
2023/02/09 03:42:03;;;;;;;31.42;20.52;;;;;;;1.58;61.75;100145.13;5092396;28;20101;-47
2023/02/09 03:44:31;;;;;;;28.60;19.38;;;;;;;1.62;61.40;100140.59;5090635;28;20021;-47
2023/02/09 03:47:10;;;;;;;27.70;19.50;;;;;;;1.54;61.33;100133.34;5092357;28;20024;-47
2023/02/09 03:49:45;;;;;;;39.75;19.92;;;;;;;1.45;61.22;100138.31;5090935;28;20115;-47
2023/02/09 03:52:16;;;;;;;31.45;20.77;;;;;;;1.40;61.12;100139.47;5092277;28;20020;-47
2023/02/09 03:54:58;;;;;;;33.65;19.30;;;;;;;1.31;61.45;100147.88;5090882;28;20031;-47
2023/02/09 03:57:37;;;;;;;27.67;18.50;;;;;;;1.30;61.56;100141.03;5092217;28;20024;-47
2023/02/09 04:00:18;;;;;;;28.15;19.98;;;;;;;1.37;61.87;100146.63;5092086;28;20012;-47
2023/02/09 04:02:59;;;;;;;27.90;18.85;;;;;;;1.37;61.88;100144.88;5092171;28;20077;-47
2023/02/09 04:05:35;;;;;;;32.97;18.48;;;;;;;1.55;61.87;100149.69;5090756;28;20107;-47
2023/02/09 04:08:13;;;;;;;33.28;21.00;;;;;;;1.48;61.30;100148.47;5091974;28;20093;-47
2023/02/09 04:10:50;;;;;;;27.92;17.95;;;;;;;1.37;61.57;100157.81;5090642;28;20508;-47
2023/02/09 04:13:30;;;;;;;30.10;17.98;;;;;;;1.37;61.50;100155.22;5090622;28;20023;-47
2023/02/09 04:16:11;;;;;;;34.38;18.35;;;;;;;1.41;61.35;100163.59;5091953;28;20020;-47
2023/02/09 04:18:46;;;;;;;32.70;19.17;;;;;;;1.40;61.50;100157.56;5091961;28;20028;-47
2023/02/09 04:21:35;;;;;;;30.77;18.15;;;;;;;1.24;61.40;100167.31;5091870;28;20028;-47
2023/02/09 04:24:20;;;;;;;29.20;20.15;;;;;;;1.09;62.19;100164.00;5090650;28;20515;-46
2023/02/09 04:27:04;;;;;;;32.80;19.48;;;;;;;1.03;62.37;100163.56;5092114;28;20394;-47
2023/02/09 04:29:53;;;;;;;30.95;18.95;;;;;;;0.95;62.79;100156.34;5091799;28;20016;-46
2023/02/09 04:32:37;;;;;;;26.63;18.35;;;;;;;1.08;64.05;100157.19;5091868;28;20489;-46
2023/02/09 04:35:16;;;;;;;31.13;18.85;;;;;;;1.39;63.03;100155.94;5091778;28;20024;-47
2023/02/09 04:37:59;;;;;;;32.20;19.05;;;;;;;1.55;61.77;100160.03;5090434;28;20024;-45
2023/02/09 04:40:43;;;;;;;28.52;17.40;;;;;;;1.58;61.87;100168.41;5091672;28;20051;-46
2023/02/09 04:43:21;;;;;;;30.48;17.42;;;;;;;1.55;62.19;100165.22;5090403;28;20028;-48
2023/02/09 04:45:53;;;;;;;31.02;18.02;;;;;;;1.48;61.04;100164.00;5091602;28;20062;-46
2023/02/09 04:48:37;;;;;;;25.08;16.63;;;;;;;1.32;61.85;100161.63;5090317;28;20432;-46
2023/02/09 04:51:05;;;;;;;27.52;18.52;;;;;;;1.32;61.83;100170.22;5090274;28;20051;-46
2023/02/09 04:53:51;;;;;;;28.58;19.92;;;;;;;1.33;61.93;100165.88;5090671;28;20043;-46
2023/02/09 04:56:25;;;;;;;29.08;18.83;;;;;;;1.33;62.43;100171.06;5092415;28;20047;-46
2023/02/09 05:02:07;;;;;;;29.27;19.95;;;;;;;1.35;62.78;100175.19;5095837;28;20591;-46
2023/02/09 05:04:44;;;;;;;32.03;19.77;;;;;;;1.43;62.50;100177.25;5094232;28;20027;-47
2023/02/09 05:07:15;;;;;;;37.95;20.10;;;;;;;1.52;62.12;100178.38;5095466;28;20031;-46
2023/02/09 05:09:42;;;;;;;27.02;20.00;;;;;;;1.57;62.08;100178.88;5095370;28;20013;-46
2023/02/09 05:12:09;;;;;;;28.92;18.63;;;;;;;1.53;61.82;100185.19;5095339;28;20047;-46
2023/02/09 05:14:35;;;;;;;28.33;19.35;;;;;;;1.47;61.60;100185.63;5095313;28;20020;-47
2023/02/09 05:17:02;;;;;;;28.73;18.95;;;;;;;1.45;61.76;100180.56;5095254;28;20024;-46
2023/02/09 05:19:30;;;;;;;30.40;19.42;;;;;;;1.46;61.82;100181.38;5095265;28;20028;-46
2023/02/09 05:22:03;;;;;;;25.90;18.58;;;;;;;1.36;61.57;100179.41;5095166;28;20020;-46
2023/02/09 05:24:42;;;;;;;33.28;19.35;;;;;;;1.29;61.88;100177.34;5095054;28;20028;-46
2023/02/09 05:27:16;;;;;;;29.65;18.88;;;;;;;1.20;61.87;100186.56;5095022;28;20024;-46
2023/02/09 05:29:50;;;;;;;37.35;21.50;;;;;;;1.27;63.01;100189.53;5093668;28;20024;-46
2023/02/09 05:32:19;;;;;;;34.70;21.75;;;;;;;1.21;62.61;100180.47;5093698;28;20040;-47
2023/02/09 05:34:59;;;;;;;34.22;20.38;;;;;;;1.17;62.76;100184.19;5095137;28;20043;-47
2023/02/09 05:37:25;;;;;;;33.78;19.65;;;;;;;1.20;62.67;100182.19;5094851;28;20028;-46
2023/02/09 05:40:00;;;;;;;32.75;20.33;;;;;;;1.13;62.98;100180.97;5093534;28;20494;-46
2023/02/09 05:42:27;;;;;;;29.10;19.15;;;;;;;1.16;63.11;100195.44;5094756;28;20024;-46
2023/02/09 05:44:53;;;;;;;35.60;22.17;;;;;;;1.14;63.29;100189.56;5094803;28;20024;-46
2023/02/09 05:47:23;;;;;;;35.28;19.05;;;;;;;1.13;63.32;100191.31;5094659;28;20024;-46
2023/02/09 05:49:51;;;;;;;33.85;19.27;;;;;;;1.28;63.90;100188.63;5094497;28;20028;-45
2023/02/09 05:52:18;;;;;;;30.38;20.52;;;;;;;1.45;63.24;100193.50;5094591;28;20111;-46
2023/02/09 05:54:47;;;;;;;29.52;19.67;;;;;;;1.48;63.15;100202.81;5094483;28;20047;-45
2023/02/09 05:57:15;;;;;;;34.45;19.30;;;;;;;1.58;62.84;100201.25;5094416;28;20024;-45
2023/02/09 05:59:42;;;;;;;31.63;20.77;;;;;;;1.55;62.16;100206.59;5094466;28;20498;-46
2023/02/09 06:02:10;;;;;;;33.17;22.50;;;;;;;1.47;63.12;100203.72;5094395;28;20107;-45
2023/02/09 06:04:37;;;;;;;39.13;23.08;;;;;;;1.53;62.62;100209.31;5093028;28;20034;-46
2023/02/09 06:07:05;;;;;;;37.22;24.73;;;;;;;1.46;62.69;100207.25;5093876;28;20490;-46
2023/02/09 06:09:32;;;;;;;49.00;22.85;;;;;;;1.43;62.98;100208.28;5094183;28;20459;-45
2023/02/09 06:11:59;;;;;;;38.35;24.95;;;;;;;1.69;62.92;100208.25;5094118;28;20028;-45
2023/02/09 06:14:28;;;;;;;35.92;23.25;;;;;;;1.93;62.88;100208.31;5094208;28;20443;-46
2023/02/09 06:16:55;;;;;;;38.35;23.13;;;;;;;2.20;62.53;100210.75;5092818;28;20032;-45
2023/02/09 06:19:23;;;;;;;43.33;23.48;;;;;;;2.47;60.46;100210.53;5094017;28;20043;-46
2023/02/09 06:21:50;;;;;;;38.28;23.67;;;;;;;2.50;59.39;100210.31;5094047;28;20022;-45
2023/02/09 06:24:17;;;;;;;38.78;24.33;;;;;;;2.42;58.78;100210.03;5092611;28;20051;-45
2023/02/09 06:26:51;;;;;;;35.95;22.75;;;;;;;2.25;59.30;100216.41;5093901;28;20590;-45
2023/02/09 06:29:18;;;;;;;38.88;23.05;;;;;;;2.14;59.48;100219.75;5092574;28;20028;-46
2023/02/09 06:31:44;;;;;;;43.47;23.73;;;;;;;2.02;59.91;100222.41;5090550;28;20047;-46
2023/02/09 06:34:12;;;;;;;46.60;23.58;;;;;;;2.04;60.34;100226.53;5092432;28;20028;-46
2023/02/09 06:36:39;;;;;;;36.13;22.23;;;;;;;2.05;59.96;100229.94;5093712;28;20020;-46
2023/02/09 06:39:29;;;;;;;38.85;23.23;;;;;;;1.99;60.19;100221.69;5093768;28;20173;-46
2023/02/09 06:41:56;;;;;;;41.45;24.85;;;;;;;2.06;60.17;100226.44;5093525;28;20109;-46
2023/02/09 06:44:26;;;;;;;38.92;24.15;;;;;;;2.15;60.43;100228.34;5092259;28;20032;-46
2023/02/09 06:46:53;;;;;;;41.88;27.02;;;;;;;2.29;60.57;100224.78;5093554;28;20509;-45
2023/02/09 06:49:24;;;;;;;38.75;23.95;;;;;;;2.40;60.29;100230.06;5092411;28;20477;-46
2023/02/09 06:51:51;;;;;;;42.65;26.75;;;;;;;2.54;59.69;100232.47;5108968;28;20035;-46
2023/02/09 06:54:18;;;;;;;52.63;27.52;;;;;;;2.37;59.66;100230.25;5092071;28;20058;-45
2023/02/09 06:56:47;;;;;;;38.80;24.88;;;;;;;2.36;60.80;100237.22;5092028;28;20024;-45
2023/02/09 06:59:14;;;;;;;40.70;28.60;;;;;;;2.53;60.31;100243.75;5093300;28;20084;-45
2023/02/09 07:01:42;;;;;;;43.05;31.20;;;;;;;2.30;60.16;100244.59;5093221;28;20101;-45
2023/02/09 07:04:09;;;;;;;52.28;29.65;;;;;;;2.27;61.65;100240.44;5093506;28;20032;-46
2023/02/09 07:06:35;;;;;;;45.67;28.55;;;;;;;2.68;61.66;100246.22;5093184;28;20024;-46
2023/02/09 07:09:02;;;;;;;50.22;28.73;;;;;;;3.08;61.01;100248.47;5093006;28;20028;-45
2023/02/09 07:11:29;;;;;;;45.75;28.45;;;;;;;3.51;59.92;100248.69;5091720;28;20025;-46
2023/02/09 07:13:59;;;;;;;43.40;30.52;;;;;;;3.51;58.91;100245.25;5091710;28;20497;-45
2023/02/09 07:16:25;;;;;;;44.28;29.77;;;;;;;3.30;58.30;100247.69;5093001;28;20016;-45
2023/02/09 07:18:52;;;;;;;49.78;29.20;;;;;;;3.02;59.06;100247.16;5092138;28;20032;-45
2023/02/09 07:21:20;;;;;;;48.35;28.58;;;;;;;2.90;59.38;100254.06;5092860;28;20028;-45
2023/02/09 07:23:47;;;;;;;63.75;29.23;;;;;;;2.84;59.56;100258.88;5091492;28;20067;-46
2023/02/09 07:26:16;;;;;;;51.47;28.13;;;;;;;3.04;60.12;100262.59;5091456;28;20017;-45
2023/02/09 07:28:44;;;;;;;52.08;30.15;;;;;;;3.46;60.43;100260.34;5092664;28;20020;-46
2023/02/09 07:31:13;;;;;;;45.20;28.98;;;;;;;3.89;59.16;100263.09;5092363;28;20109;-45
2023/02/09 07:33:42;;;;;;;41.13;27.33;;;;;;;4.20;58.17;100266.75;5092612;28;20040;-46
2023/02/09 07:36:12;;;;;;;42.92;29.13;;;;;;;4.26;57.20;100265.44;5092611;28;20028;-46
2023/02/09 07:38:40;;;;;;;51.92;32.10;;;;;;;4.07;56.30;100265.25;5092459;28;20073;-45
2023/02/09 07:41:17;;;;;;;46.13;30.48;;;;;;;3.85;57.13;100272.09;5091147;28;20035;-46
2023/02/09 07:43:44;;;;;;;54.25;31.48;;;;;;;3.84;57.50;100272.19;5092516;28;20031;-46
2023/02/09 07:46:14;;;;;;;47.47;33.45;;;;;;;3.67;56.57;100268.31;5092435;28;20020;-46
2023/02/09 07:48:41;;;;;;;50.60;31.63;;;;;;;3.37;56.89;100269.66;5091024;28;20025;-46
2023/02/09 07:51:23;;;;;;;46.85;31.50;;;;;;;3.18;57.10;100267.63;5092305;28;20515;-46
2023/02/09 07:53:53;;;;;;;45.65;30.00;;;;;;;3.23;57.54;100277.66;5092264;28;20024;-45
2023/02/09 07:56:22;;;;;;;48.90;28.73;;;;;;;3.24;57.39;100272.34;5092480;28;20114;-45
2023/02/09 07:58:52;;;;;;;49.88;30.08;;;;;;;3.27;57.80;100282.47;5092184;28;20055;-45
2023/02/09 08:01:21;;;;;;;46.45;29.90;;;;;;;3.30;57.41;100279.69;5092166;28;20024;-45
2023/02/09 08:03:49;;;;;;;45.55;28.25;;;;;;;3.30;57.93;100282.28;5092173;28;20024;-46
2023/02/09 08:06:54;;;;;;;47.38;29.35;;;;;;;3.26;57.72;100282.59;5092109;28;20439;-45
2023/02/09 08:09:20;;;;;;;46.83;27.85;;;;;;;3.27;57.21;100281.66;5048596;28;20036;-46
2023/02/09 08:12:01;;;;;;;46.80;29.58;;;;;;;3.30;57.56;100286.63;5092051;28;20031;-45
2023/02/09 08:14:38;;;;;;;51.45;31.55;;;;;;;3.28;57.89;100281.56;5092054;28;20093;-45
2023/02/09 08:17:26;;;;;;;46.03;28.77;;;;;;;3.35;57.91;100287.13;5090710;28;20130;-46
2023/02/09 08:20:38;;;;;;;51.83;29.20;;;;;;;3.51;57.77;100286.78;5090559;28;20032;-46
2023/02/09 08:23:46;;;;;;;48.47;28.77;;;;;;;3.45;56.89;100284.66;5092137;28;20020;-46
2023/02/09 08:26:23;;;;;;;44.05;27.77;;;;;;;3.56;57.93;100290.72;5090496;28;20073;-47
2023/02/09 08:29:02;;;;;;;73.53;28.92;;;;;;;3.93;57.66;100290.50;5090470;28;20073;-47
2023/02/09 08:31:29;;;;;;;63.60;28.73;;;;;;;4.24;57.28;100292.50;5093531;28;20535;-46
2023/02/09 08:33:58;;;;;;;57.78;28.60;;;;;;;4.39;56.48;100283.50;5097261;28;20111;-46
2023/02/09 08:36:47;;;;;;;46.65;26.67;;;;;;;4.49;55.53;100294.81;5097176;28;20043;-46
2023/02/09 08:39:13;;;;;;;56.25;26.65;;;;;;;4.63;55.26;100293.72;5097116;28;20180;-46
2023/02/09 08:41:41;;;;;;;57.80;29.00;;;;;;;4.83;54.90;100297.34;5097179;28;20039;-47
2023/02/09 08:44:25;;;;;;;43.70;27.17;;;;;;;5.05;55.02;100298.19;5097848;28;20040;-47
2023/02/09 08:47:07;;;;;;;43.10;27.40;;;;;;;5.15;53.97;100299.09;5097107;28;20028;-48
2023/02/09 08:49:37;;;;;;;45.50;26.33;;;;;;;5.44;54.61;100304.50;5096992;28;20107;-46
2023/02/09 08:52:04;;;;;;;53.58;27.60;;;;;;;6.10;53.17;100304.22;5098360;28;20024;-46
2023/02/09 08:54:31;;;;;;;43.38;23.85;;;;;;;6.70;52.85;100304.25;5098390;28;20013;-46
2023/02/09 08:56:58;;;;;;;57.80;27.90;;;;;;;7.89;50.51;100296.16;5098352;28;20041;-46
2023/02/09 08:59:25;;;;;;;57.03;27.40;;;;;;;8.02;48.93;100299.25;5097034;28;20059;-48
2023/02/09 09:01:53;;;;;;;69.75;28.33;;;;;;;8.07;48.85;100296.19;5096955;28;20047;-48
2023/02/09 09:04:20;;;;;;;47.08;26.23;;;;;;;8.74;48.42;100299.44;5096974;28;20020;-48
2023/02/09 09:06:47;;;;;;;53.83;28.17;;;;;;;9.23;47.01;100296.44;5098170;28;20028;-49
2023/02/09 09:09:14;;;;;;;54.08;29.25;;;;;;;9.13;46.76;100293.91;5098189;28;20021;-48
2023/02/09 09:12:04;;;;;;;60.88;27.98;;;;;;;9.13;47.03;100299.16;5096913;28;20024;-48
2023/02/09 09:14:35;;;;;;;54.53;27.35;;;;;;;9.05;46.85;100301.69;5098255;28;20095;-49
2023/02/09 09:17:02;;;;;;;61.33;29.88;;;;;;;9.21;47.22;100307.06;5098128;28;20024;-47
2023/02/09 09:19:30;;;;;;;52.63;29.20;;;;;;;9.39;46.28;100307.84;5096812;28;20031;-47
2023/02/09 09:21:57;;;;;;;67.25;28.38;;;;;;;9.42;45.74;100314.63;5098086;28;20016;-47
2023/02/09 09:24:27;;;;;;;67.82;28.20;;;;;;;9.32;45.53;100317.31;5098078;28;20027;-47
2023/02/09 09:26:54;;;;;;;55.20;28.50;;;;;;;9.10;45.91;100320.41;5096782;28;20090;-46
2023/02/09 09:29:22;;;;;;;67.15;28.08;;;;;;;9.14;45.83;100319.13;5098034;28;20472;-47
2023/02/09 09:31:49;;;;;;;63.83;29.15;;;;;;;9.30;45.61;100321.88;5096038;28;20040;-47
2023/02/09 09:34:16;;;;;;;49.90;28.95;;;;;;;9.51;44.87;100318.91;5096754;28;20116;-47
2023/02/09 09:36:44;;;;;;;50.00;28.77;;;;;;;9.67;44.80;100317.41;5098008;28;20016;-47
2023/02/09 09:39:10;;;;;;;58.92;29.20;;;;;;;9.71;44.14;100324.78;5098057;28;20505;-47
2023/02/09 09:41:38;;;;;;;50.17;28.23;;;;;;;9.63;44.97;100323.94;5096867;28;20402;-46
2023/02/09 09:44:50;;;;;;;40.65;28.95;;;;;;;9.79;44.55;100326.66;5093350;28;20493;-47
2023/02/09 09:47:47;;;;;;;47.30;31.05;;;;;;;9.34;44.90;100325.03;5093219;28;20020;-47
2023/02/09 09:50:50;;;;;;;47.05;30.35;;;;;;;9.41;45.25;100326.06;5094684;28;20084;-48
2023/02/09 09:53:46;;;;;;;59.40;31.17;;;;;;;9.64;44.75;100331.66;5094549;28;20398;-47
2023/02/09 09:56:35;;;;;;;52.47;30.95;;;;;;;9.78;44.60;100331.09;5093185;28;20505;-49
2023/02/09 09:59:02;;;;;;;47.47;29.83;;;;;;;9.94;43.76;100332.13;5093249;28;20035;-47
2023/02/09 10:01:31;;;;;;;53.50;33.15;;;;;;;9.83;43.63;100340.28;5093140;28;20492;-46
2023/02/09 10:04:14;;;;;;;46.85;32.25;;;;;;;9.71;44.06;100337.91;5076314;28;20393;-47
2023/02/09 10:06:55;;;;;;;53.83;32.15;;;;;;;9.66;43.88;100324.44;5093063;28;20024;-46
2023/02/09 10:10:02;;;;;;;54.38;33.08;;;;;;;9.78;43.98;100336.31;5094515;28;20070;-46
2023/02/09 10:12:50;;;;;;;50.42;32.30;;;;;;;10.23;43.53;100326.56;5092761;28;20035;-47
2023/02/09 10:15:38;;;;;;;46.50;31.67;;;;;;;11.64;41.94;100323.19;5094276;28;20034;-47
2023/02/09 10:18:15;;;;;;;64.80;31.27;;;;;;;12.24;39.71;100316.66;5094160;28;20057;-47
2023/02/09 10:20:55;;;;;;;54.60;32.75;;;;;;;12.80;39.22;100319.97;5094023;28;20034;-47
2023/02/09 10:23:44;;;;;;;43.67;32.58;;;;;;;12.90;37.64;100320.56;5093923;28;20501;-47
2023/02/09 10:26:17;;;;;;;47.30;33.00;;;;;;;12.92;37.60;100326.47;5094019;28;20035;-48
2023/02/09 10:28:47;;;;;;;50.97;32.47;;;;;;;13.48;36.89;100320.97;5092585;28;20035;-47
2023/02/09 10:31:23;;;;;;;48.55;31.65;;;;;;;13.81;36.80;100327.75;5092188;28;20134;-47
2023/02/09 10:34:15;;;;;;;44.13;32.03;;;;;;;13.86;36.93;100320.09;5094095;28;20099;-47
2023/02/09 10:37:27;;;;;;;48.53;33.47;;;;;;;13.76;36.12;100323.84;5064511;28;20446;-47
2023/02/09 10:40:28;;;;;;;42.58;32.70;;;;;;;13.37;35.99;100322.22;5093610;28;20026;-47
2023/02/09 10:43:31;;;;;;;54.00;33.00;;;;;;;13.14;36.67;100324.03;5093619;28;20020;-47
2023/02/09 10:46:26;;;;;;;42.20;33.13;;;;;;;12.53;37.34;100329.97;5093493;28;20058;-47
2023/02/09 10:49:32;;;;;;;46.45;33.97;;;;;;;12.05;38.20;100328.38;5093483;28;20081;-47
2023/02/09 10:52:25;;;;;;;50.10;35.28;;;;;;;13.03;37.63;100330.53;5092110;28;20128;-47
2023/02/09 10:54:56;;;;;;;47.20;34.58;;;;;;;12.79;37.03;100326.22;5092303;28;20113;-47
2023/02/09 10:57:27;;;;;;;52.63;37.85;;;;;;;12.28;37.68;100326.66;5093663;28;20028;-47
2023/02/09 10:59:59;;;;;;;46.47;35.25;;;;;;;12.04;37.90;100324.94;5093343;28;20036;-47
2023/02/09 11:02:36;;;;;;;52.85;42.20;;;;;;;11.97;38.33;100327.44;5093306;28;20024;-47
2023/02/09 11:05:33;;;;;;;54.78;38.85;;;;;;;12.54;39.15;100328.19;5093126;28;20164;-47
2023/02/09 11:08:23;;;;;;;55.08;34.80;;;;;;;14.22;37.14;100319.38;5093080;28;20036;-47
2023/02/09 11:11:12;;;;;;;47.33;32.15;;;;;;;15.26;34.94;100308.50;5093180;28;20485;-48
2023/02/09 11:13:41;;;;;;;43.03;37.90;;;;;;;15.80;33.54;100307.09;5093187;28;20401;-47
2023/02/09 11:16:35;;;;;;;67.32;59.72;;;;;;;15.46;33.65;100303.38;5093016;28;20039;-47
2023/02/09 11:19:38;;;;;;;40.13;31.48;;;;;;;15.79;33.88;100290.38;5092887;28;20460;-48
2023/02/09 11:22:42;;;;;;;40.13;31.33;;;;;;;16.63;32.08;100296.44;5091605;28;20069;-47
2023/02/09 11:25:47;;;;;;;;;;;;;;;;;;;;;
2023/02/09 11:28:53;;;;;;;51.58;28.63;;;;;;;17.18;31.11;100291.84;5092894;28;20038;-46
2023/02/09 11:31:49;;;;;;;44.47;29.30;;;;;;;17.33;30.62;100281.84;5089610;28;20048;-45
2023/02/09 11:34:50;;;;;;;34.55;29.33;;;;;;;17.16;30.52;100284.13;5091306;28;20510;-45
2023/02/09 11:37:53;;;;;;;35.75;28.90;;;;;;;16.99;29.90;100279.41;5091614;28;20622;-45
2023/02/09 11:40:33;;;;;;;34.08;27.17;;;;;;;16.49;30.04;100285.81;5091188;28;20524;-45
2023/02/09 11:43:38;;;;;;;46.30;27.30;;;;;;;15.84;30.99;100273.94;5092570;28;20032;-45
2023/02/09 11:46:20;;;;;;;37.88;28.05;;;;;;;15.56;31.58;100275.56;5091095;28;20063;-45
2023/02/09 11:49:29;;;;;;;36.80;28.63;;;;;;;15.72;31.93;100274.47;5091090;28;20020;-45
2023/02/09 11:51:58;;;;;;;37.53;29.20;;;;;;;16.27;31.36;100274.50;5091341;28;20051;-46
2023/02/09 11:54:33;;;;;;;33.45;29.50;;;;;;;16.41;31.16;100274.56;5092328;28;20059;-45
2023/02/09 11:57:13;;;;;;;38.15;28.27;;;;;;;17.03;30.65;100273.50;5092372;28;20111;-46
2023/02/09 12:00:01;;;;;;;36.22;28.35;;;;;;;18.07;29.50;100266.63;5092278;28;20025;-46
2023/02/09 12:02:50;;;;;;;30.63;25.10;;;;;;;18.54;28.44;100261.06;5092250;28;20028;-46
2023/02/09 12:05:20;;;;;;;27.80;21.42;;;;;;;19.09;27.77;100255.19;5090465;28;20028;-46
2023/02/09 12:08:06;;;;;;;18.83;13.40;;;;;;;19.25;26.21;100253.81;5092172;28;20020;-46
2023/02/09 12:10:56;;;;;;;22.40;17.77;;;;;;;19.49;25.88;100242.31;5092057;28;20032;-46
2023/02/09 12:14:00;;;;;;;17.60;15.55;;;;;;;20.02;25.57;100251.59;5092094;28;20055;-46
2023/02/09 12:16:43;;;;;;;19.55;14.43;;;;;;;20.18;24.45;100236.03;5092018;28;20524;-46
2023/02/09 12:20:12;;;;;;;25.92;16.42;;;;;;;19.74;25.04;100236.97;5090680;28;20073;-46